Time;durP1;ratioP1;P1;durP2;ratioP2;P2;SDS_P1;SDS_P2;PMS_P1;PMS_P2;Temp;Humidity;BMP_temperature;BMP_pressure;BME280_temperature;BME280_humidity;BME280_pressure;Samples;Min_cycle;Max_cycle;Signal;HPM_P1;HPM_P2
2024/02/19 00:01:09;;;;;;;87.63;58.33;;;3.30;99.90;4.40;97570.00;;;;5039663;28;20212;-84
2024/02/19 00:03:57;;;;;;;88.70;60.60;;;3.20;99.90;4.40;97578.00;;;;5044107;28;20212;-81
2024/02/19 00:06:47;;;;;;;184.07;118.37;;;3.10;99.90;4.80;97574.00;;;;5021166;28;20673;-81
2024/02/19 00:09:36;;;;;;;70.03;51.00;;;3.10;99.90;4.90;97577.00;;;;5045503;28;20216;-82
2024/02/19 00:12:25;;;;;;;67.77;50.33;;;3.00;99.90;5.20;97568.00;;;;5050675;28;20224;-85
2024/02/19 00:15:14;;;;;;;60.67;46.77;;;3.10;99.90;5.00;97560.00;;;;5046537;28;20208;-82
2024/02/19 00:18:06;;;;;;;76.40;53.27;;;3.10;99.90;5.20;97565.00;;;;5045940;28;20485;-82
2024/02/19 00:20:55;;;;;;;57.80;45.90;;;3.10;99.90;5.20;97565.00;;;;5041515;28;20219;-83
2024/02/19 00:23:44;;;;;;;66.43;48.80;;;3.10;99.90;5.00;97556.00;;;;5047575;28;20720;-82
2024/02/19 00:26:33;;;;;;;71.07;50.77;;;3.10;99.90;5.10;97554.00;;;;5046446;28;20205;-84
2024/02/19 00:29:22;;;;;;;68.47;50.23;;;3.10;99.90;4.80;97553.00;;;;5046312;28;20208;-83
2024/02/19 00:32:11;;;;;;;73.87;51.50;;;3.00;99.90;4.70;97545.00;;;;5042424;28;20209;-85
2024/02/19 00:35:01;;;;;;;73.80;54.47;;;2.90;99.90;5.00;97539.00;;;;5049125;28;20216;-84
2024/02/19 00:37:50;;;;;;;60.50;46.87;;;2.90;99.90;5.00;97538.00;;;;5043983;28;20221;-83
2024/02/19 00:40:40;;;;;;;56.70;45.53;;;2.90;99.90;4.80;97524.00;;;;5048764;28;20200;-84
2024/02/19 00:43:29;;;;;;;51.20;41.73;;;2.90;99.90;4.70;97528.00;;;;5039407;28;20615;-84
2024/02/19 00:46:17;;;;;;;52.33;43.07;;;2.80;99.90;4.30;97532.00;;;;5049871;28;20681;-84
2024/02/19 00:49:06;;;;;;;57.03;44.77;;;2.70;99.90;4.20;97531.00;;;;5050696;28;20421;-82
2024/02/19 00:51:57;;;;;;;48.00;40.33;;;2.60;99.90;4.60;97528.00;;;;5049101;28;20467;-83
2024/02/19 00:54:46;;;;;;;64.47;58.67;;;2.70;99.90;4.80;97536.00;;;;5047963;28;20795;-82
2024/02/19 00:57:35;;;;;;;49.67;42.33;;;2.70;99.90;4.50;97526.00;;;;5051224;28;20231;-84
2024/02/19 01:00:24;;;;;;;51.00;42.60;;;2.70;99.90;4.00;97516.00;;;;5052132;28;20416;-82
2024/02/19 01:03:13;;;;;;;56.17;44.80;;;2.50;99.90;4.10;97513.00;;;;5050696;28;20228;-81
2024/02/19 01:06:02;;;;;;;56.03;45.73;;;2.50;99.90;4.40;97512.00;;;;5053150;28;20431;-83
2024/02/19 01:08:52;;;;;;;48.87;40.50;;;2.50;99.90;4.40;97509.00;;;;5049631;28;20438;-84
2024/02/19 01:11:42;;;;;;;45.03;39.50;;;2.50;99.90;4.10;97501.00;;;;5052804;28;20428;-83
2024/02/19 01:14:30;;;;;;;46.70;40.77;;;2.50;99.90;4.10;97494.00;;;;5054119;28;20956;-83
2024/02/19 01:17:20;;;;;;;44.07;38.00;;;2.40;99.90;3.60;97504.00;;;;5051757;28;20420;-83
2024/02/19 01:20:10;;;;;;;56.03;44.63;;;2.30;99.90;4.10;97495.00;;;;5053314;28;20836;-82
2024/02/19 01:22:59;;;;;;;56.30;44.20;;;-0.40;99.90;4.30;97491.00;;;;5054738;28;20419;-83
2024/02/19 01:25:52;;;;;;;49.53;41.63;;;2.30;99.90;4.10;97480.00;;;;5054256;28;20438;-83
2024/02/19 01:28:40;;;;;;;52.63;42.90;;;2.30;99.90;4.00;97496.00;;;;5056941;28;20786;-82
2024/02/19 01:31:29;;;;;;;48.23;40.53;;;2.30;99.90;3.90;97488.00;;;;5050724;28;20438;-83
2024/02/19 01:34:18;;;;;;;40.23;36.00;;;2.20;99.90;3.40;97479.00;;;;5045279;28;20964;-82
2024/02/19 01:37:08;;;;;;;56.80;45.20;;;2.10;99.90;3.90;97490.00;;;;5046986;28;20517;-84
2024/02/19 01:39:56;;;;;;;53.20;42.67;;;2.10;99.90;4.40;97495.00;;;;5046374;28;20438;-83
2024/02/19 01:42:47;;;;;;;44.97;39.50;;;2.20;99.90;4.50;97481.00;;;;5049918;28;20432;-83
2024/02/19 01:45:37;;;;;;;50.87;42.00;;;2.30;99.90;4.60;97479.00;;;;5053295;28;20423;-82
2024/02/19 01:48:26;;;;;;;55.33;43.97;;;2.30;99.90;4.70;97483.00;;;;5054464;28;20427;-86
2024/02/19 01:51:19;;;;;;;51.83;43.30;;;2.40;99.90;4.70;97478.00;;;;5046376;28;20945;-83
2024/02/19 01:54:11;;;;;;;68.20;49.43;;;2.50;99.90;4.80;97473.00;;;;5054550;28;20474;-83
2024/02/19 01:57:00;;;;;;;59.73;45.67;;;2.50;99.90;4.40;97483.00;;;;5055125;28;20430;-83
2024/02/19 01:59:50;;;;;;;57.90;44.90;;;2.50;99.90;3.70;97467.00;;;;5046032;28;20468;-83
2024/02/19 02:02:40;;;;;;;50.30;41.73;;;2.40;99.90;3.80;97489.00;;;;5043818;28;20791;-84
2024/02/19 02:05:29;;;;;;;56.27;43.10;;;2.30;99.90;4.40;97480.00;;;;5048247;28;20433;-84
2024/02/19 02:08:18;;;;;;;52.43;42.90;;;2.30;99.90;4.80;97480.00;;;;5052607;28;20420;-83
2024/02/19 02:11:07;;;;;;;61.87;47.50;;;2.40;99.90;4.20;97474.00;;;;5055026;28;20455;-84
2024/02/19 02:13:56;;;;;;;54.90;44.23;;;2.50;99.90;4.30;97463.00;;;;5042756;28;20448;-84
2024/02/19 02:16:46;;;;;;;56.03;44.13;;;2.50;99.90;3.90;97469.00;;;;5046938;28;20431;-83
2024/02/19 02:19:36;;;;;;;49.07;41.73;;;2.40;99.90;4.60;97470.00;;;;5047467;28;20460;-82
2024/02/19 02:22:25;;;;;;;56.30;44.00;;;2.50;99.90;4.60;97474.00;;;;5050004;28;20453;-83
2024/02/19 02:25:13;;;;;;;67.97;49.40;;;2.50;99.90;4.50;97460.00;;;;5050247;28;20801;-83
2024/02/19 02:28:04;;;;;;;64.13;48.27;;;2.50;99.90;4.60;97460.00;;;;5053197;28;20209;-84
2024/02/19 02:30:53;;;;;;;60.20;46.13;;;2.50;99.90;3.90;97455.00;;;;5041651;28;20201;-85
2024/02/19 02:33:42;;;;;;;53.53;42.63;;;2.40;99.90;3.50;97453.00;;;;5043476;28;20447;-84
2024/02/19 02:36:31;;;;;;;57.07;44.57;;;2.30;99.90;4.00;97450.00;;;;5051438;28;20431;-82
2024/02/19 02:39:20;;;;;;;57.63;44.97;;;2.30;99.90;4.20;97446.00;;;;5043749;28;20471;-84
2024/02/19 02:42:09;;;;;;;66.30;47.40;;;2.40;99.90;4.90;97454.00;;;;5042589;28;20428;-83
2024/02/19 02:44:59;;;;;;;60.67;46.73;;;2.60;99.90;4.70;97440.00;;;;5049486;28;20462;-84
2024/02/19 02:47:48;;;;;;;63.47;47.83;;;2.70;99.90;4.20;97441.00;;;;5049612;28;20439;-82
2024/02/19 02:50:37;;;;;;;61.90;48.07;;;2.60;99.90;4.40;97448.00;;;;5047125;28;20951;-82
2024/02/19 02:53:26;;;;;;;57.93;44.40;;;2.50;99.90;4.10;97432.00;;;;5047670;28;20450;-85
2024/02/19 02:56:19;;;;;;;61.93;48.27;;;2.50;99.90;4.40;97439.00;;;;5041865;28;20458;-84
2024/02/19 02:59:08;;;;;;;64.63;47.47;;;2.50;99.90;4.10;97433.00;;;;5041252;28;20462;-84
2024/02/19 03:01:58;;;;;;;47.43;39.87;;;2.50;99.90;3.60;97429.00;;;;5044319;28;20435;-85
2024/02/19 03:04:47;;;;;;;56.37;44.90;;;2.40;99.90;4.00;97436.00;;;;5047014;28;20451;-83
2024/02/19 03:07:36;;;;;;;55.37;44.03;;;2.40;99.90;4.10;97433.00;;;;5042412;28;20825;-83
2024/02/19 03:10:26;;;;;;;56.93;44.50;;;2.40;99.90;4.20;97417.00;;;;5038026;28;20816;-84
2024/02/19 03:13:14;;;;;;;65.33;48.53;;;2.40;99.90;4.60;97403.00;;;;5042512;28;20458;-81
2024/02/19 03:16:05;;;;;;;64.73;49.17;;;2.50;99.90;4.90;97390.00;;;;5049852;28;20431;-83
2024/02/19 03:18:56;;;;;;;58.90;45.83;;;2.60;99.90;4.50;97381.00;;;;5048749;28;20473;-81
2024/02/19 03:21:45;;;;;;;60.37;45.53;;;2.60;99.90;4.60;97387.00;;;;5047220;28;20803;-82
2024/02/19 03:24:35;;;;;;;53.67;43.23;;;2.60;99.90;4.30;97399.00;;;;5040636;28;20448;-83
2024/02/19 03:27:24;;;;;;;55.00;44.53;;;2.60;99.90;3.80;97407.00;;;;5040688;28;20420;-83
2024/02/19 03:30:14;;;;;;;62.27;47.50;;;2.60;99.90;4.70;97403.00;;;;5049401;28;20434;-83
2024/02/19 03:33:03;;;;;;;59.83;46.37;;;2.90;99.90;5.20;97425.00;;;;5049191;28;20435;-82
2024/02/19 03:35:53;;;;;;;58.97;45.10;;;2.80;99.90;5.30;97423.00;;;;5049868;28;20442;-80
2024/02/19 03:38:42;;;;;;;56.13;44.53;;;2.90;99.90;5.50;97421.00;;;;5035393;28;20427;-82
2024/02/19 03:41:31;;;;;;;60.70;46.77;;;3.00;99.90;5.40;97407.00;;;;5043795;28;20692;-81
2024/02/19 03:44:20;;;;;;;62.03;46.80;;;3.10;99.90;5.60;97411.00;;;;5044038;28;20217;-82
2024/02/19 03:47:09;;;;;;;69.70;51.03;;;3.20;99.90;5.40;97400.00;;;;5048822;28;20440;-82
2024/02/19 03:49:58;;;;;;;63.20;48.40;;;3.20;99.90;5.40;97420.00;;;;5042012;28;20203;-81
2024/02/19 03:52:48;;;;;;;66.37;49.10;;;3.10;99.90;5.40;97431.00;;;;5042879;28;20220;-84
2024/02/19 03:55:37;;;;;;;67.77;50.43;;;3.30;99.90;5.30;97428.00;;;;5048314;28;20208;-84
2024/02/19 03:58:26;;;;;;;69.00;50.20;;;3.30;99.90;5.50;97415.00;;;;5046070;28;20645;-84
2024/02/19 04:01:15;;;;;;;73.43;52.70;;;3.30;99.90;5.80;97419.00;;;;5043116;28;20204;-83
2024/02/19 04:04:04;;;;;;;75.67;53.33;;;3.40;99.90;5.80;97412.00;;;;5043462;28;20745;-82
2024/02/19 04:06:53;;;;;;;68.87;50.00;;;3.40;99.90;5.10;97420.00;;;;5038049;28;20432;-83
2024/02/19 04:09:44;;;;;;;67.20;50.03;;;3.40;99.90;5.30;97419.00;;;;5047776;28;20572;-82
2024/02/19 04:12:32;;;;;;;62.87;48.03;;;3.30;99.90;5.70;97407.00;;;;5040975;28;20196;-83
2024/02/19 04:15:21;;;;;;;65.33;48.83;;;3.40;99.90;5.80;97413.00;;;;5049464;28;20204;-82
2024/02/19 04:18:10;;;;;;;74.40;52.40;;;2.90;99.90;5.50;97390.00;;;;5037665;28;20200;-84
2024/02/19 04:20:59;;;;;;;68.23;50.77;;;3.40;99.90;5.20;97402.00;;;;5038296;28;20286;-82
2024/02/19 04:23:48;;;;;;;69.53;51.80;;;3.40;99.90;5.20;97401.00;;;;5048729;28;20224;-83
2024/02/19 04:26:38;;;;;;;53.30;42.93;;;3.30;99.90;4.90;97394.00;;;;5036673;28;20210;-84
2024/02/19 04:29:27;;;;;;;63.60;48.83;;;3.20;99.90;5.50;97390.00;;;;5042114;28;20193;-85
2024/02/19 04:32:16;;;;;;;56.70;45.00;;;3.30;99.90;5.50;97396.00;;;;5046636;28;20219;-84
2024/02/19 04:35:06;;;;;;;68.00;50.23;;;3.30;99.90;4.70;97388.00;;;;5049108;28;20225;-82
2024/02/19 04:37:55;;;;;;;50.10;42.67;;;3.30;99.90;4.50;97384.00;;;;5042042;28;20212;-82
2024/02/19 04:40:44;;;;;;;56.97;45.20;;;3.10;99.90;4.60;97382.00;;;;5047953;28;20220;-84
2024/02/19 04:43:34;;;;;;;60.17;46.37;;;3.10;99.90;4.60;97393.00;;;;5040533;28;20605;-83
2024/02/19 04:46:23;;;;;;;58.43;46.37;;;3.10;99.90;4.70;97403.00;;;;5043811;28;20948;-83
2024/02/19 04:49:12;;;;;;;66.50;49.97;;;3.00;99.90;4.90;97401.00;;;;5039698;28;20447;-83
2024/02/19 04:52:01;;;;;;;65.97;49.87;;;3.00;99.90;5.40;97409.00;;;;5043307;28;20208;-83
2024/02/19 04:54:50;;;;;;;64.07;48.30;;;3.20;99.90;5.40;97401.00;;;;5035529;28;20459;-82
2024/02/19 04:57:39;;;;;;;63.20;47.83;;;3.20;99.90;5.70;97408.00;;;;5041396;28;20451;-84
2024/02/19 05:00:30;;;;;;;65.50;48.77;;;3.30;99.90;5.60;97405.00;;;;5040698;28;20220;-83
2024/02/19 05:03:19;;;;;;;70.60;51.03;;;3.40;99.90;5.90;97405.00;;;;5046596;28;20221;-83
2024/02/19 05:06:08;;;;;;;79.03;54.30;;;3.50;99.90;6.10;97397.00;;;;5039788;28;20211;-84
2024/02/19 05:08:57;;;;;;;72.60;51.87;;;3.60;99.90;5.80;97395.00;;;;5049224;28;20682;-84
2024/02/19 05:11:46;;;;;;;74.77;53.37;;;3.60;99.90;6.00;97407.00;;;;5040441;28;20608;-82
2024/02/19 05:14:35;;;;;;;75.17;53.43;;;3.60;99.90;6.20;97415.00;;;;5049314;28;20271;-84
2024/02/19 05:17:25;;;;;;;76.27;53.50;;;3.70;99.90;5.90;97412.00;;;;5042251;28;20212;-84
2024/02/19 05:20:14;;;;;;;80.20;56.70;;;3.70;99.90;5.40;97416.00;;;;5043049;28;20724;-83
2024/02/19 05:23:03;;;;;;;83.53;57.20;;;3.70;99.90;6.20;97429.00;;;;5043419;28;20220;-84
2024/02/19 05:25:52;;;;;;;82.60;55.63;;;3.80;99.90;6.50;97418.00;;;;5041772;28;20212;-84
2024/02/19 05:28:41;;;;;;;83.37;55.53;;;3.90;99.90;6.60;97411.00;;;;5041645;28;20201;-84
2024/02/19 05:31:35;;;;;;;75.40;53.77;;;4.00;99.90;5.90;97408.00;;;;5047231;28;20204;-83
2024/02/19 05:34:25;;;;;;;78.27;56.37;;;4.00;99.90;5.30;97394.00;;;;5049946;28;20235;-82
2024/02/19 05:37:15;;;;;;;86.13;59.63;;;4.00;99.90;5.90;97388.00;;;;5045440;28;20223;-84
2024/02/19 05:40:05;;;;;;;78.23;56.30;;;3.90;99.90;6.10;97396.00;;;;5053862;28;20221;-82
2024/02/19 05:42:54;;;;;;;71.70;53.37;;;3.90;99.90;5.60;97393.00;;;;5053616;28;20205;-83
2024/02/19 05:45:43;;;;;;;72.70;53.70;;;3.90;99.90;5.70;97399.00;;;;5049785;28;20208;-84
2024/02/19 05:48:33;;;;;;;78.33;56.60;;;3.90;99.90;6.20;97405.00;;;;5048410;28;20197;-84
2024/02/19 05:51:23;;;;;;;72.73;51.50;;;3.90;99.90;6.30;97404.00;;;;5042840;28;20247;-84
2024/02/19 05:54:12;;;;;;;68.87;51.37;;;4.00;99.90;6.20;97408.00;;;;5048324;28;20387;-84
2024/02/19 05:57:02;;;;;;;82.67;57.27;;;4.00;99.90;6.00;97400.00;;;;5044591;28;20212;-83
2024/02/19 05:59:51;;;;;;;70.27;51.23;;;4.00;99.90;5.90;97399.00;;;;5044744;28;20277;-82
2024/02/19 06:02:40;;;;;;;73.53;53.07;;;4.00;99.90;6.00;97399.00;;;;5050487;28;20215;-83
2024/02/19 06:05:29;;;;;;;71.43;51.47;;;4.00;99.90;6.00;97402.00;;;;5040273;28;20206;-84
2024/02/19 06:08:20;;;;;;;77.97;54.60;;;4.00;99.90;6.20;97401.00;;;;5042653;28;20295;-85
2024/02/19 06:11:08;;;;;;;78.60;55.87;;;4.00;99.90;6.20;97399.00;;;;5043921;28;20223;-83
2024/02/19 06:13:57;;;;;;;89.13;62.30;;;4.00;99.90;6.10;97405.00;;;;5039499;28;20236;-84
2024/02/19 06:16:46;;;;;;;81.03;56.17;;;4.00;99.90;6.00;97409.00;;;;5048061;28;20208;-83
2024/02/19 06:19:36;;;;;;;79.37;54.97;;;4.00;99.90;6.30;97409.00;;;;5042195;28;20216;-85
2024/02/19 06:22:26;;;;;;;84.10;55.80;;;4.10;99.90;6.40;97410.00;;;;5048680;28;20204;-82
2024/02/19 06:25:16;;;;;;;90.30;59.57;;;4.10;99.90;6.70;97407.00;;;;5049832;28;20204;-83
2024/02/19 06:28:06;;;;;;;89.33;58.47;;;4.20;99.90;6.70;97404.00;;;;5049945;28;20258;-84
2024/02/19 06:30:55;;;;;;;84.83;57.00;;;4.30;99.90;6.30;97407.00;;;;5041036;28;20197;-84
2024/02/19 06:33:44;;;;;;;84.07;57.90;;;4.20;99.90;6.60;97420.00;;;;5050808;28;20217;-85
2024/02/19 06:36:33;;;;;;;78.23;54.33;;;4.30;99.90;6.30;97402.00;;;;5043050;28;20628;-82
2024/02/19 06:39:22;;;;;;;87.27;58.93;;;4.30;99.90;5.80;97403.00;;;;5014730;28;20581;-84
2024/02/19 06:42:13;;;;;;;103.20;65.87;;;4.30;99.90;6.10;97400.00;;;;5034459;22;20875;-87
2024/02/19 06:45:02;;;;;;;86.10;59.00;;;4.20;99.90;6.00;97403.00;;;;5038104;28;20201;-88
2024/02/19 06:47:51;;;;;;;228.47;157.93;;;4.20;99.90;6.20;97401.00;;;;5007848;28;20219;-87
2024/02/19 06:50:40;;;;;;;215.40;139.13;;;4.20;99.90;5.90;97400.00;;;;4978247;28;20740;-87
2024/02/19 06:53:29;;;;;;;178.60;122.73;;;3.80;99.90;5.80;97400.00;;;;4983446;28;20696;-88
2024/02/19 06:56:18;;;;;;;181.40;117.67;;;4.10;99.90;6.10;97405.00;;;;4989602;28;20209;-87
2024/02/19 06:59:08;;;;;;;146.90;98.80;;;4.10;99.90;5.80;97402.00;;;;4979371;28;20696;-87
2024/02/19 07:01:57;;;;;;;194.10;126.10;;;4.10;99.90;6.20;97403.00;;;;4984972;28;20438;-87
2024/02/19 07:04:47;;;;;;;127.83;89.50;;;4.20;99.90;6.50;97402.00;;;;4980102;28;20291;-87
2024/02/19 07:07:37;;;;;;;206.10;138.10;;;4.30;99.90;6.40;97407.00;;;;4976258;28;20192;-87
2024/02/19 07:10:26;;;;;;;122.67;82.33;;;4.30;99.90;6.40;97398.00;;;;4978603;28;20236;-87
2024/02/19 07:13:15;;;;;;;206.83;136.47;;;4.40;99.90;6.50;97408.00;;;;4980384;28;20208;-88
2024/02/19 07:16:06;;;;;;;115.00;73.80;;;4.40;99.90;6.80;97416.00;;;;4968451;28;20850;-86
2024/02/19 07:18:55;;;;;;;197.03;130.23;;;4.50;99.90;6.40;97407.00;;;;4979369;28;20637;-86
2024/02/19 07:21:45;;;;;;;124.40;78.13;;;4.60;99.90;6.50;97394.00;;;;4977385;28;21516;-85
2024/02/19 07:24:35;;;;;;;199.63;134.17;;;4.60;99.90;6.60;97410.00;;;;4987508;28;20212;-86
2024/02/19 07:27:25;;;;;;;83.37;57.40;;;4.60;99.90;7.00;97406.00;;;;4987376;28;20209;-87
2024/02/19 07:30:15;;;;;;;104.23;67.70;;;4.70;99.90;7.20;97419.00;;;;5014619;28;20226;-86
2024/02/19 07:33:06;;;;;;;192.50;122.17;;;4.80;99.90;7.00;97421.00;;;;5019533;28;20701;-87
2024/02/19 07:35:55;;;;;;;206.67;136.40;;;4.80;99.90;7.20;97416.00;;;;4984730;28;20213;-86
2024/02/19 07:38:44;;;;;;;189.47;119.70;;;4.80;99.90;7.20;97416.00;;;;4985791;28;20201;-86
2024/02/19 07:41:33;;;;;;;90.93;60.47;;;4.90;99.90;7.20;97415.00;;;;5000523;28;20721;-86
2024/02/19 07:44:22;;;;;;;91.70;60.77;;;5.00;99.90;7.20;97405.00;;;;5024852;28;20201;-86
2024/02/19 07:47:11;;;;;;;93.77;62.90;;;5.00;99.90;7.40;97413.00;;;;5016458;28;20214;-87
2024/02/19 07:50:01;;;;;;;203.10;137.10;;;5.10;99.90;7.60;97424.00;;;;5005846;28;20233;-87
2024/02/19 07:52:50;;;;;;;174.13;113.77;;;5.10;99.90;8.00;97420.00;;;;4981999;28;20208;-86
2024/02/19 07:55:39;;;;;;;205.23;136.13;;;5.30;99.90;7.70;97424.00;;;;4984518;28;20339;-87
2024/02/19 07:58:28;;;;;;;112.17;74.23;;;5.30;99.90;7.40;97422.00;;;;4977551;28;20205;-86
2024/02/19 08:01:17;;;;;;;106.90;70.17;;;5.40;99.90;7.50;97412.00;;;;5010596;28;20233;-86
2024/02/19 08:04:06;;;;;;;116.50;77.13;;;5.40;99.90;7.90;97404.00;;;;5017458;28;20205;-86
2024/02/19 08:06:57;;;;;;;179.90;125.23;;;5.50;99.90;8.30;97414.00;;;;4997723;28;20208;-86
2024/02/19 08:09:47;;;;;;;91.23;63.77;;;5.80;99.90;8.60;97416.00;;;;5006008;28;20198;-86
2024/02/19 08:12:36;;;;;;;178.83;117.03;;;5.80;99.90;8.20;97412.00;;;;5001548;28;20213;-86
2024/02/19 08:15:27;;;;;;;194.30;135.63;;;5.90;99.90;7.90;97406.00;;;;4994940;28;20783;-87
2024/02/19 08:18:16;;;;;;;176.67;117.67;;;5.90;99.90;7.90;97412.00;;;;5002176;28;20205;-86
2024/02/19 08:21:06;;;;;;;108.57;74.37;;;5.90;99.90;8.20;97418.00;;;;5026422;28;20232;-86
2024/02/19 08:23:56;;;;;;;98.60;68.73;;;6.00;99.90;8.50;97414.00;;;;4997475;28;20213;-87
2024/02/19 08:26:45;;;;;;;118.70;78.40;;;6.00;99.90;8.60;97428.00;;;;5019823;28;20791;-85
2024/02/19 08:29:34;;;;;;;98.33;68.23;;;6.20;99.90;8.60;97423.00;;;;5018780;28;20210;-87
2024/02/19 08:32:23;;;;;;;95.07;67.57;;;6.20;99.90;8.70;97410.00;;;;5007913;28;20189;-88
2024/02/19 08:35:12;;;;;;;109.77;75.60;;;6.20;99.90;8.70;97415.00;;;;5026768;28;20213;-87
2024/02/19 08:38:01;;;;;;;96.70;65.93;;;6.30;99.90;9.00;97427.00;;;;5015449;28;20213;-86
2024/02/19 08:40:52;;;;;;;96.03;66.67;;;6.40;99.90;9.50;97428.00;;;;5012920;28;20217;-87
2024/02/19 08:43:41;;;;;;;113.57;77.27;;;6.60;99.90;9.40;97436.00;;;;5013498;28;20312;-87
2024/02/19 08:46:30;;;;;;;96.93;68.13;;;6.70;99.90;9.70;97428.00;;;;5015250;28;20198;-87
2024/02/19 08:49:19;;;;;;;131.90;88.63;;;6.80;99.90;9.60;97422.00;;;;5016617;28;20212;-87
2024/02/19 08:52:08;;;;;;;111.47;78.37;;;7.00;99.90;9.50;97412.00;;;;5020166;28;20198;-86
2024/02/19 08:54:57;;;;;;;107.00;73.80;;;7.00;99.90;9.70;97425.00;;;;5016719;28;20332;-87
2024/02/19 08:57:47;;;;;;;102.50;73.80;;;7.20;99.90;9.90;97419.00;;;;5022721;28;20232;-87
2024/02/19 09:00:36;;;;;;;109.50;78.30;;;7.30;99.90;10.10;97418.00;;;;5024583;28;20221;-88
2024/02/19 09:03:25;;;;;;;110.20;81.47;;;7.40;99.90;10.70;97414.00;;;;5021734;28;20255;-88
2024/02/19 09:06:14;;;;;;;129.60;89.10;;;7.50;99.90;10.40;97428.00;;;;5015219;28;20229;-87
2024/02/19 09:09:03;;;;;;;106.00;75.27;;;7.70;99.90;10.40;97422.00;;;;5020567;28;20213;-87
2024/02/19 09:11:52;;;;;;;118.53;82.67;;;7.80;99.90;10.60;97417.00;;;;5018788;28;20736;-87
2024/02/19 09:14:43;;;;;;;189.10;128.73;;;7.80;99.90;10.70;97415.00;;;;5010687;28;20681;-86
2024/02/19 09:17:32;;;;;;;121.10;85.23;;;8.00;99.90;10.50;97415.00;;;;5016958;28;20555;-87
2024/02/19 09:20:20;;;;;;;150.13;97.80;;;8.00;99.90;10.90;97423.00;;;;5017131;28;20700;-87
2024/02/19 09:23:09;;;;;;;130.73;90.93;;;8.10;99.90;11.30;97424.00;;;;5011930;28;20230;-87
2024/02/19 09:26:01;;;;;;;125.33;86.87;;;8.10;99.90;11.40;97404.00;;;;5016266;28;20232;-86
2024/02/19 09:28:50;;;;;;;127.10;87.03;;;8.30;99.90;11.20;97412.00;;;;5023243;28;20194;-86
2024/02/19 09:31:42;;;;;;;123.93;86.13;;;8.40;99.90;10.80;97410.00;;;;5026699;28;20604;-86
2024/02/19 09:34:31;;;;;;;131.87;89.37;;;8.40;99.90;10.80;97413.00;;;;4992601;28;20201;-87
2024/02/19 09:37:24;;;;;;;136.13;91.17;;;8.50;99.90;11.50;97412.00;;;;5010724;28;20234;-86
2024/02/19 09:40:15;;;;;;;140.43;94.43;;;8.50;99.90;11.80;97417.00;;;;5013373;28;20682;-87
2024/02/19 09:43:05;;;;;;;139.70;93.07;;;8.70;99.90;12.20;97414.00;;;;5019809;28;20316;-86
2024/02/19 09:45:55;;;;;;;147.07;98.97;;;8.90;99.90;12.20;97418.00;;;;5026469;28;20227;-87
2024/02/19 09:48:49;;;;;;;149.37;99.97;;;9.10;99.90;12.20;97406.00;;;;5021611;28;20212;-86
2024/02/19 09:51:41;;;;;;;143.23;95.27;;;9.20;99.90;11.60;97406.00;;;;5023893;28;20230;-86
2024/02/19 09:54:31;;;;;;;229.87;155.87;;;9.30;99.90;12.10;97409.00;;;;5013444;28;21599;-85
2024/02/19 09:57:20;;;;;;;175.77;117.73;;;9.40;99.90;12.50;97409.00;;;;4983951;28;20217;-86
2024/02/19 10:00:14;;;;;;;162.90;112.87;;;9.50;99.90;12.80;97410.00;;;;5021886;28;20630;-86
2024/02/19 10:03:03;;;;;;;147.57;99.07;;;9.70;99.90;13.00;97407.00;;;;5028879;28;20616;-86
2024/02/19 10:05:54;;;;;;;155.03;104.17;;;9.80;99.90;12.80;97402.00;;;;5031996;28;20216;-85
2024/02/19 10:08:43;;;;;;;170.77;111.13;;;9.90;99.90;12.80;97411.00;;;;5025923;28;20209;-86
2024/02/19 10:11:32;;;;;;;158.73;106.37;;;10.00;99.90;13.20;97411.00;;;;5025080;28;20217;-86
2024/02/19 10:14:20;;;;;;;174.37;116.43;;;10.10;99.90;13.30;97398.00;;;;5026870;28;20225;-86
2024/02/19 10:17:12;;;;;;;171.83;118.03;;;10.20;99.90;13.50;97403.00;;;;5023930;28;20206;-86
2024/02/19 10:20:05;;;;;;;157.97;109.43;;;10.40;99.90;13.60;97404.00;;;;5021066;28;20229;-86
2024/02/19 10:22:56;;;;;;;171.73;114.93;;;10.50;99.90;13.80;97393.00;;;;5021793;28;20613;-86
2024/02/19 10:25:45;;;;;;;168.27;117.17;;;10.60;99.90;14.10;97396.00;;;;5017468;28;20213;-87
2024/02/19 10:28:34;;;;;;;184.83;123.43;;;10.80;99.90;14.60;97390.00;;;;5015758;28;20706;-86
2024/02/19 10:31:23;;;;;;;174.80;118.27;;;11.00;99.90;14.90;97388.00;;;;5014098;28;20229;-87
2024/02/19 10:34:14;;;;;;;215.50;140.67;;;11.30;99.90;14.80;97394.00;;;;5018003;28;20735;-86
2024/02/19 10:37:05;;;;;;;195.93;131.10;;;11.50;99.90;15.10;97390.00;;;;5017433;28;20214;-86
2024/02/19 10:39:56;;;;;;;190.30;131.70;;;11.70;99.90;14.90;97395.00;;;;5004766;28;20892;-87
2024/02/19 10:42:46;;;;;;;186.53;132.10;;;11.80;99.90;14.80;97382.00;;;;5017610;28;20225;-87
2024/02/19 10:45:35;;;;;;;191.83;134.27;;;11.90;99.90;15.10;97385.00;;;;5015972;28;20209;-87
2024/02/19 10:48:25;;;;;;;199.37;139.90;;;12.00;99.90;15.20;97384.00;;;;4999708;28;20218;-87
2024/02/19 10:51:17;;;;;;;214.70;148.30;;;12.10;99.90;15.50;97381.00;;;;5017012;28;20677;-87
2024/02/19 10:54:07;;;;;;;218.37;156.77;;;12.30;99.90;15.30;97382.00;;;;5018250;28;20204;-87
2024/02/19 10:57:08;;;;;;;202.50;143.67;;;12.40;99.90;15.50;97391.00;;;;5019323;28;20209;-86
2024/02/19 11:00:08;;;;;;;203.13;148.27;;;12.40;99.90;15.50;97390.00;;;;5019840;28;20220;-87
2024/02/19 11:03:07;;;;;;;195.80;142.10;;;12.50;99.90;15.50;97387.00;;;;5010636;28;20570;-87
2024/02/19 11:06:02;;;;;;;216.03;155.63;;;12.60;99.90;15.70;97385.00;;;;5015368;28;20578;-87
2024/02/19 11:08:55;;;;;;;210.90;155.50;;;12.60;99.90;16.00;97369.00;;;;5010082;28;20213;-88
2024/02/19 11:11:47;;;;;;;217.10;156.83;;;12.80;99.90;16.40;97372.00;;;;5020166;28;20705;-87
2024/02/19 11:14:38;;;;;;;216.90;157.03;;;13.00;99.90;16.80;97374.00;;;;5022911;28;20204;-87
2024/02/19 11:17:28;;;;;;;229.90;165.43;;;13.30;99.90;17.10;97373.00;;;;5016625;28;20206;-87
2024/02/19 11:20:25;;;;;;;250.20;183.30;;;13.60;99.90;17.30;97366.00;;;;5012651;28;20221;-88
2024/02/19 11:23:18;;;;;;;257.27;193.13;;;13.90;99.90;17.60;97363.00;;;;5017394;28;20242;-87
2024/02/19 11:26:08;;;;;;;244.47;189.33;;;14.30;99.90;17.90;97355.00;;;;5023412;28;20212;-88
2024/02/19 11:28:59;;;;;;;283.83;223.60;;;14.50;99.90;17.90;97365.00;;;;4996653;28;20881;-87
2024/02/19 11:32:02;;;;;;;358.27;288.57;;;14.70;99.90;18.30;97364.00;;;;4979114;28;20282;-88
2024/02/19 11:34:51;;;;;;;355.93;290.10;;;14.90;99.90;17.90;97364.00;;;;4982342;28;20198;-85
2024/02/19 11:37:40;;;;;;;260.33;225.27;;;15.00;99.90;18.90;97338.00;;;;5012800;28;20275;-85
2024/02/19 11:40:32;;;;;;;372.73;305.30;;;15.20;99.90;19.40;97324.00;;;;5002456;28;20221;-86
2024/02/19 11:43:23;;;;;;;348.70;281.43;;;15.50;99.90;20.50;97339.00;;;;4976562;28;20223;-85
2024/02/19 11:46:13;;;;;;;435.20;341.60;;;;;19.40;97314.00;;;;4975892;28;20213;-86
2024/02/19 11:49:04;;;;;;;415.43;340.03;;;;;19.60;97340.00;;;;4965385;28;21934;-84
2024/02/19 11:51:53;;;;;;;451.77;371.17;;;;;19.90;97320.00;;;;4972340;28;20221;-85
2024/02/19 11:54:52;;;;;;;371.57;326.43;;;;;20.40;97311.00;;;;4963649;28;20295;-85
2024/02/19 11:57:44;;;;;;;471.03;392.83;;;;;21.80;97318.00;;;;4969858;28;20363;-86
2024/02/19 12:00:42;;;;;;;371.33;326.60;;;;;22.60;97318.00;;;;4978919;28;20230;-87
2024/02/19 12:03:31;;;;;;;502.83;415.03;;;;;23.10;97315.00;;;;5014189;28;20205;-85
2024/02/19 12:06:22;;;;;;;447.13;393.33;;;;;23.20;97316.00;;;;4970378;28;20339;-86
2024/02/19 12:09:11;;;;;;;453.30;404.97;;;;;23.10;97319.00;;;;5001298;28;20311;-87
2024/02/19 12:12:01;;;;;;;455.53;408.03;;;;;21.90;97344.00;;;;5014639;28;20209;-86
2024/02/19 12:14:50;;;;;;;456.30;409.00;;;;;21.80;97342.00;;;;4997972;28;20226;-86
2024/02/19 12:17:41;;;;;;;452.47;405.80;;;;;20.00;97326.00;;;;5016588;28;20849;-86
2024/02/19 12:20:30;;;;;;;440.67;394.73;;;;;20.80;97288.00;;;;5014634;28;20225;-87
2024/02/19 12:23:21;;;;;;;442.10;395.60;;;;;20.90;97292.00;;;;5012605;28;20202;-87
2024/02/19 12:26:10;;;;;;;439.27;392.73;;;;;21.00;97291.00;;;;5019823;28;20229;-87
2024/02/19 12:28:59;;;;;;;429.23;382.77;;;;;21.00;97316.00;;;;5016459;28;20208;-86